Time;durP1;ratioP1;P1;durP2;ratioP2;P2;SDS_P1;SDS_P2;PMS_P1;PMS_P2;Temp;Humidity;BMP_temperature;BMP_pressure;BME280_temperature;BME280_humidity;BME280_pressure;Samples;Min_cycle;Max_cycle;Signal;HPM_P1;HPM_P2
2023/01/03 00:00:17;;;;;;;;;;;6.80;99.90;;;;;;5053810;28;19920;-57
2023/01/03 00:02:45;;;;;;;;;;;6.80;99.90;;;;;;5053304;28;19920;-55
2023/01/03 00:05:12;;;;;;;;;;;6.70;99.90;;;;;;5053798;28;20371;-60
2023/01/03 00:07:38;;;;;;;;;;;6.70;99.90;;;;;;5053856;28;19991;-59
2023/01/03 00:10:06;;;;;;;;;;;6.70;99.90;;;;;;5053875;28;19921;-57
2023/01/03 00:12:32;;;;;;;;;;;6.60;99.90;;;;;;5053888;28;20319;-50
2023/01/03 00:14:59;;;;;;;;;;;6.60;99.90;;;;;;5053794;28;19921;-56
2023/01/03 00:17:26;;;;;;;;;;;6.60;99.90;;;;;;5053450;28;19975;-57
2023/01/03 00:19:53;;;;;;;;;;;6.50;99.90;;;;;;5053529;28;19963;-57
2023/01/03 00:22:20;;;;;;;;;;;6.50;99.90;;;;;;5055197;28;19920;-58
2023/01/03 00:24:48;;;;;;;;;;;6.40;99.90;;;;;;5065142;28;19928;-54
2023/01/03 00:27:15;;;;;;;;;;;6.40;99.90;;;;;;5073248;28;19921;-56
2023/01/03 00:29:42;;;;;;;;;;;6.40;99.90;;;;;;5073092;28;19924;-58
2023/01/03 00:32:09;;;;;;;;;;;6.30;99.90;;;;;;5073504;28;19928;-54
2023/01/03 00:34:35;;;;;;;;;;;6.30;99.90;;;;;;5073524;28;19924;-57
2023/01/03 00:37:03;;;;;;;;;;;6.30;99.90;;;;;;5072918;28;19947;-59
2023/01/03 00:39:30;;;;;;;;;;;6.20;99.90;;;;;;5073185;28;19920;-55
2023/01/03 00:41:56;;;;;;;;;;;6.20;99.90;;;;;;5073088;28;19966;-52
2023/01/03 00:44:23;;;;;;;;;;;6.10;99.90;;;;;;5073072;28;19920;-57
2023/01/03 00:46:50;;;;;;;;;;;6.10;99.90;;;;;;5072678;28;20592;-58
2023/01/03 00:49:16;;;;;;;;;;;6.00;99.90;;;;;;5073184;28;20361;-57
2023/01/03 00:51:43;;;;;;;;;;;6.00;99.90;;;;;;5072912;28;19920;-57
2023/01/03 00:54:11;;;;;;;;;;;6.00;99.90;;;;;;5064499;28;19921;-58
2023/01/03 00:56:38;;;;;;;;;;;6.00;99.90;;;;;;5052679;28;19990;-57
2023/01/03 00:59:05;;;;;;;;;;;5.90;99.90;;;;;;5052730;28;20281;-56
2023/01/03 01:01:33;;;;;;;;;;;5.90;99.90;;;;;;5052933;28;19928;-52
2023/01/03 01:04:03;;;;;;;;;;;5.90;99.90;;;;;;5052919;28;20338;-57
2023/01/03 01:06:31;;;;;;;;;;;5.90;99.90;;;;;;5052542;28;19921;-59
2023/01/03 01:08:58;;;;;;;;;;;5.90;99.90;;;;;;5052570;28;19947;-54
2023/01/03 01:11:27;;;;;;;;;;;5.90;99.90;;;;;;5052619;28;19987;-59
2023/01/03 01:13:54;;;;;;;;;;;6.00;99.90;;;;;;5051553;28;20371;-57
2023/01/03 01:16:23;;;;;;;;;;;6.00;99.90;;;;;;5052635;28;19921;-55
2023/01/03 01:18:52;;;;;;;;;;;6.10;99.90;;;;;;5052356;28;19920;-55
2023/01/03 01:21:20;;;;;;;;;;;6.10;99.90;;;;;;5052647;28;20302;-59
2023/01/03 01:23:46;;;;;;;;;;;6.10;99.90;;;;;;5060621;28;19925;-57
2023/01/03 01:26:14;;;;;;;;;;;6.10;99.90;;;;;;5069129;28;20298;-58
2023/01/03 01:28:42;;;;;;;;;;;6.10;99.90;;;;;;5072297;28;19924;-58
2023/01/03 01:31:10;;;;;;;;;;;6.10;99.90;;;;;;5072571;28;19924;-58
2023/01/03 01:33:37;;;;;;;;;;;6.10;99.90;;;;;;5072513;28;19924;-57
2023/01/03 01:36:07;;;;;;;;;;;6.00;99.90;;;;;;5072200;28;19974;-59
2023/01/03 01:38:33;;;;;;;;;;;6.00;99.90;;;;;;5071867;28;19920;-59
2023/01/03 01:41:00;;;;;;;;;;;5.90;99.90;;;;;;5072210;28;19926;-58
2023/01/03 01:46:19;;;;;;;;;;;5.80;99.90;;;;;;5072161;28;19923;-59
2023/01/03 01:48:46;;;;;;;;;;;5.80;99.90;;;;;;5072272;28;19924;-55
2023/01/03 01:51:14;;;;;;;;;;;5.80;99.90;;;;;;5072180;28;19955;-55
2023/01/03 01:53:41;;;;;;;;;;;5.80;99.90;;;;;;5063572;28;20371;-59
2023/01/03 01:56:09;;;;;;;;;;;5.80;99.90;;;;;;5055622;28;19928;-59
2023/01/03 01:58:37;;;;;;;;;;;5.80;99.90;;;;;;5052134;28;19921;-59
2023/01/03 02:01:04;;;;;;;;;;;5.80;99.90;;;;;;5052170;28;19921;-57
2023/01/03 02:03:32;;;;;;;;;;;5.90;99.90;;;;;;5052072;28;19921;-59
2023/01/03 02:06:00;;;;;;;;;;;5.90;99.90;;;;;;5052076;28;19966;-54
2023/01/03 02:08:26;;;;;;;;;;;5.90;99.90;;;;;;5052175;28;19921;-55
2023/01/03 02:11:06;;;;;;;;;;;5.90;99.90;;;;;;5051859;28;20383;-56
2023/01/03 02:13:37;;;;;;;;;;;5.90;99.90;;;;;;5051854;28;20375;-59
2023/01/03 02:16:10;;;;;;;;;;;6.00;99.90;;;;;;5051748;28;19990;-59
2023/01/03 02:18:42;;;;;;;;;;;6.00;99.90;;;;;;5052044;28;19947;-59
2023/01/03 02:21:30;;;;;;;;;;;6.00;99.90;;;;;;5052092;28;19921;-56
2023/01/03 02:24:23;;;;;;;;;;;6.00;99.90;;;;;;5060351;28;19921;-54
2023/01/03 02:26:53;;;;;;;;;;;6.10;99.90;;;;;;5035795;28;19921;-55
2023/01/03 02:29:26;;;;;;;;;;;6.10;99.90;;;;;;5035811;28;19921;-56
2023/01/03 02:31:58;;;;;;;;;;;6.10;99.90;;;;;;5035401;28;20024;-57
2023/01/03 02:34:28;;;;;;;;;;;6.10;99.90;;;;;;5035751;28;19921;-58
2023/01/03 02:37:00;;;;;;;;;;;6.10;99.90;;;;;;5035154;28;20379;-57
2023/01/03 02:39:30;;;;;;;;;;;6.10;99.90;;;;;;5035578;28;19924;-52
2023/01/03 02:44:39;;;;;;;;;;;6.10;99.90;;;;;;5035133;28;20273;-54
2023/01/03 02:47:08;;;;;;;;;;;6.10;99.90;;;;;;5035159;28;19921;-58
2023/01/03 02:49:37;;;;;;;;;;;6.10;99.90;;;;;;5035276;28;19932;-59
2023/01/03 02:52:06;;;;;;;;;;;6.20;99.90;;;;;;5035141;28;20400;-56
2023/01/03 02:54:35;;;;;;;;;;;6.20;99.90;;;;;;5066165;28;19920;-57
2023/01/03 02:57:05;;;;;;;;;;;6.20;99.90;;;;;;5074954;28;19924;-55
2023/01/03 02:59:34;;;;;;;;;;;6.10;99.90;;;;;;5074966;28;20422;-55
2023/01/03 03:02:01;;;;;;;;;;;6.20;99.90;;;;;;5074682;28;20342;-56
2023/01/03 03:04:30;;;;;;;;;;;6.20;99.90;;;;;;5075042;28;20371;-54
2023/01/03 03:06:58;;;;;;;;;;;6.20;99.90;;;;;;5074921;28;19920;-51
2023/01/03 03:09:25;;;;;;;;;;;6.20;99.90;;;;;;5074900;28;19973;-52
2023/01/03 03:14:39;;;;;;;;;;;6.20;99.90;;;;;;5074776;28;20283;-50
2023/01/03 03:17:08;;;;;;;;;;;6.30;99.90;;;;;;5074838;28;19925;-56
2023/01/03 03:25:12;;;;;;;;;;;6.30;99.90;;;;;;5062963;28;19970;-58
2023/01/03 03:30:26;;;;;;;;;;;6.30;99.90;;;;;;5054557;28;19924;-58
2023/01/03 03:32:55;;;;;;;;;;;6.20;99.90;;;;;;5054459;28;20349;-58
2023/01/03 03:35:24;;;;;;;;;;;6.20;99.90;;;;;;5054035;28;19928;-57
2023/01/03 03:37:54;;;;;;;;;;;6.20;99.90;;;;;;5054106;28;20019;-56
2023/01/03 03:45:57;;;;;;;;;;;6.10;99.90;;;;;;5054191;28;19949;-56
2023/01/03 03:48:26;;;;;;;;;;;6.00;99.90;;;;;;5054274;28;20004;-49
2023/01/03 03:50:57;;;;;;;;;;;6.00;99.90;;;;;;5054149;28;19927;-53
2023/01/03 03:53:25;;;;;;;;;;;6.00;99.90;;;;;;5062234;28;19924;-53
2023/01/03 03:55:53;;;;;;;;;;;6.00;99.90;;;;;;5068235;28;19924;-52
2023/01/03 03:58:21;;;;;;;;;;;6.00;99.90;;;;;;5074415;28;19920;-57
2023/01/03 04:00:49;;;;;;;;;;;5.90;99.90;;;;;;5074379;28;19920;-54
2023/01/03 04:03:17;;;;;;;;;;;5.90;99.90;;;;;;5074087;28;19924;-57
2023/01/03 04:05:45;;;;;;;;;;;6.00;99.90;;;;;;5073784;28;20383;-51
2023/01/03 04:08:13;;;;;;;;;;;5.90;99.90;;;;;;5072890;28;19966;-54
2023/01/03 04:10:40;;;;;;;;;;;6.00;99.90;;;;;;5073466;28;19921;-53
2023/01/03 04:13:07;;;;;;;;;;;6.00;99.90;;;;;;5073681;28;19931;-54
2023/01/03 04:15:33;;;;;;;;;;;6.00;99.90;;;;;;5073777;28;19920;-56
2023/01/03 04:18:00;;;;;;;;;;;5.90;99.90;;;;;;5073564;28;19924;-54
2023/01/03 04:20:27;;;;;;;;;;;5.90;99.90;;;;;;5073319;28;19928;-59
2023/01/03 04:22:54;;;;;;;;;;;5.90;99.90;;;;;;5067437;28;19928;-51
2023/01/03 04:25:22;;;;;;;;;;;5.90;99.90;;;;;;5061607;28;19924;-55
2023/01/03 04:27:48;;;;;;;;;;;5.90;99.90;;;;;;5053533;28;19928;-57
2023/01/03 04:30:15;;;;;;;;;;;5.90;99.90;;;;;;5053424;28;19998;-57
2023/01/03 04:32:41;;;;;;;;;;;5.90;99.90;;;;;;5053383;28;19920;-56
2023/01/03 04:35:08;;;;;;;;;;;6.00;99.90;;;;;;5053421;28;19932;-53
2023/01/03 04:37:35;;;;;;;;;;;5.90;99.90;;;;;;5052943;28;19983;-55
2023/01/03 04:40:01;;;;;;;;;;;5.90;99.90;;;;;;5052806;28;19921;-52
2023/01/03 04:45:13;;;;;;;;;;;5.90;99.90;;;;;;5053160;28;20418;-57
2023/01/03 04:47:40;;;;;;;;;;;5.90;99.90;;;;;;5052606;28;19928;-57
2023/01/03 04:50:08;;;;;;;;;;;5.90;99.90;;;;;;5053029;28;19924;-55
2023/01/03 04:52:35;;;;;;;;;;;5.90;99.90;;;;;;5056316;28;19920;-59
2023/01/03 04:55:01;;;;;;;;;;;5.90;99.90;;;;;;5064667;28;19924;-57
2023/01/03 04:57:29;;;;;;;;;;;6.00;99.90;;;;;;5072735;28;19920;-59
2023/01/03 04:59:56;;;;;;;;;;;5.90;99.90;;;;;;5072806;28;19981;-57
2023/01/03 05:02:22;;;;;;;;;;;5.90;99.90;;;;;;5072805;28;19920;-60
2023/01/03 05:04:49;;;;;;;;;;;5.70;99.90;;;;;;5072645;28;20375;-60
2023/01/03 05:07:15;;;;;;;;;;;5.70;99.90;;;;;;5072715;28;19920;-59
2023/01/03 05:09:43;;;;;;;;;;;5.60;99.90;;;;;;5072912;28;19924;-56
2023/01/03 05:12:11;;;;;;;;;;;5.60;99.90;;;;;;5072939;28;19921;-55
2023/01/03 05:14:40;;;;;;;;;;;5.50;99.90;;;;;;5072589;28;19935;-57
2023/01/03 05:17:06;;;;;;;;;;;5.50;99.90;;;;;;5072661;28;19920;-58
2023/01/03 05:19:33;;;;;;;;;;;5.40;99.90;;;;;;5072239;28;20694;-57
2023/01/03 05:27:28;;;;;;;;;;;5.20;99.90;;;;;;5052354;28;19940;-57
2023/01/03 05:29:56;;;;;;;;;;;5.10;99.90;;;;;;5052098;28;19921;-60
2023/01/03 05:32:23;;;;;;;;;;;5.10;99.90;;;;;;5052650;28;20276;-60
2023/01/03 05:34:50;;;;;;;;;;;5.10;99.90;;;;;;5052324;28;20288;-57
2023/01/03 05:37:16;;;;;;;;;;;5.00;99.90;;;;;;5052203;28;19920;-58
2023/01/03 05:39:43;;;;;;;;;;;5.00;99.90;;;;;;5052178;28;19928;-59
2023/01/03 05:42:09;;;;;;;;;;;4.90;99.90;;;;;;5052332;28;19990;-60
2023/01/03 05:44:36;;;;;;;;;;;4.80;99.90;;;;;;5052103;28;20438;-58
2023/01/03 05:47:05;;;;;;;;;;;4.80;99.90;;;;;;5052112;28;19920;-60
2023/01/03 05:49:33;;;;;;;;;;;4.70;99.90;;;;;;5052265;28;19990;-57
2023/01/03 05:51:59;;;;;;;;;;;4.70;99.90;;;;;;5052164;28;20007;-59
2023/01/03 05:54:26;;;;;;;;;;;4.70;99.90;;;;;;5062421;28;20371;-59
2023/01/03 05:56:52;;;;;;;;;;;4.60;99.90;;;;;;5071938;28;19943;-59
2023/01/03 05:59:19;;;;;;;;;;;4.60;99.90;;;;;;5073040;28;19920;-59
2023/01/03 06:01:46;;;;;;;;;;;4.60;99.90;;;;;;5076181;28;19920;-59
2023/01/03 06:04:14;;;;;;;;;;;4.70;99.90;;;;;;5076260;28;19920;-59
2023/01/03 06:06:40;;;;;;;;;;;4.60;99.90;;;;;;5075749;28;20371;-56
2023/01/03 06:09:07;;;;;;;;;;;4.70;99.90;;;;;;5076056;28;19920;-57
2023/01/03 06:11:33;;;;;;;;;;;4.70;99.90;;;;;;5075966;28;19970;-58
2023/01/03 06:14:00;;;;;;;;;;;4.70;99.90;;;;;;5076102;28;19924;-59
2023/01/03 06:19:11;;;;;;;;;;;4.80;99.90;;;;;;5075792;28;19923;-60
2023/01/03 06:21:40;;;;;;;;;;;4.80;99.90;;;;;;5075925;28;19920;-58
2023/01/03 06:24:07;;;;;;;;;;;4.80;99.90;;;;;;5066955;28;20350;-60
2023/01/03 06:26:33;;;;;;;;;;;4.80;99.90;;;;;;5055583;28;19924;-59
2023/01/03 06:29:00;;;;;;;;;;;4.80;99.90;;;;;;5055709;28;19966;-60
2023/01/03 06:31:27;;;;;;;;;;;4.80;99.90;;;;;;5055890;28;19975;-60
2023/01/03 06:33:53;;;;;;;;;;;4.80;99.90;;;;;;5054661;28;19924;-57
2023/01/03 06:36:21;;;;;;;;;;;4.80;99.90;;;;;;5055516;28;19921;-57
2023/01/03 06:38:49;;;;;;;;;;;4.80;99.90;;;;;;5055435;28;19929;-57
2023/01/03 06:41:16;;;;;;;;;;;4.80;99.90;;;;;;5055546;28;19966;-55
2023/01/03 06:43:43;;;;;;;;;;;4.70;99.90;;;;;;5055538;28;20044;-55
2023/01/03 06:54:25;;;;;;;;;;;4.60;99.90;;;;;;5065159;28;20296;-56
2023/01/03 06:56:52;;;;;;;;;;;4.50;99.90;;;;;;5075114;28;20421;-53
2023/01/03 06:59:19;;;;;;;;;;;4.50;99.90;;;;;;5075005;28;19920;-56
2023/01/03 07:01:46;;;;;;;;;;;4.60;99.90;;;;;;5075434;28;19924;-55
2023/01/03 07:04:13;;;;;;;;;;;4.60;99.90;;;;;;5075289;28;19920;-56
2023/01/03 07:06:40;;;;;;;;;;;4.70;99.90;;;;;;5075002;28;19974;-52
2023/01/03 07:09:07;;;;;;;;;;;4.80;99.90;;;;;;5075016;28;19920;-50
2023/01/03 07:11:36;;;;;;;;;;;4.80;99.90;;;;;;5074887;28;19928;-54
2023/01/03 07:14:02;;;;;;;;;;;4.90;99.90;;;;;;5074969;28;20298;-51
2023/01/03 07:16:30;;;;;;;;;;;4.90;99.90;;;;;;5074558;28;19948;-50
2023/01/03 07:18:57;;;;;;;;;;;5.00;99.90;;;;;;5074710;28;19931;-52
2023/01/03 07:21:24;;;;;;;;;;;5.00;99.90;;;;;;5074755;28;19924;-58
2023/01/03 07:23:52;;;;;;;;;;;5.00;99.90;;;;;;5066219;28;20405;-51
2023/01/03 07:26:19;;;;;;;;;;;5.10;99.90;;;;;;5056478;28;20030;-51
2023/01/03 07:28:46;;;;;;;;;;;5.10;99.90;;;;;;5054464;28;19920;-53
2023/01/03 07:31:13;;;;;;;;;;;5.20;99.90;;;;;;5054589;28;19921;-56
2023/01/03 07:33:39;;;;;;;;;;;5.20;99.90;;;;;;5054717;28;19967;-57
2023/01/03 07:36:07;;;;;;;;;;;5.30;99.90;;;;;;5054110;28;20375;-54
2023/01/03 07:38:34;;;;;;;;;;;5.30;99.90;;;;;;5054553;28;19931;-56
2023/01/03 07:41:01;;;;;;;;;;;5.30;99.90;;;;;;5054095;28;19924;-54
2023/01/03 07:43:36;;;;;;;;;;;5.40;99.90;;;;;;5054318;28;19921;-56
2023/01/03 07:46:06;;;;;;;;;;;5.40;99.90;;;;;;5054204;28;19923;-58
2023/01/03 07:48:33;;;;;;;;;;;5.50;99.90;;;;;;5054443;28;20007;-51
2023/01/03 07:51:00;;;;;;;;;;;5.50;99.90;;;;;;5054006;28;19920;-58
2023/01/03 07:53:26;;;;;;;;;;;5.60;99.90;;;;;;5062245;28;19974;-56
2023/01/03 07:55:53;;;;;;;;;;;5.60;99.90;;;;;;5068041;28;20379;-57
2023/01/03 07:58:20;;;;;;;;;;;5.60;99.90;;;;;;5074410;28;19920;-57
2023/01/03 08:00:46;;;;;;;;;;;5.70;99.90;;;;;;5073736;28;20429;-58
2023/01/03 08:03:14;;;;;;;;;;;5.70;99.90;;;;;;5074006;28;19920;-59
2023/01/03 08:05:41;;;;;;;;;;;5.70;99.90;;;;;;5073822;28;20039;-60
2023/01/03 08:08:07;;;;;;;;;;;5.80;99.90;;;;;;5073679;28;19924;-58
2023/01/03 08:13:18;;;;;;;;;;;5.80;99.90;;;;;;5073800;28;20013;-60
2023/01/03 08:15:45;;;;;;;;;;;5.80;99.90;;;;;;5073545;28;20353;-58
2023/01/03 08:18:13;;;;;;;;;;;5.80;99.90;;;;;;5073486;28;19974;-60
2023/01/03 08:20:41;;;;;;;;;;;5.80;99.90;;;;;;5072960;28;19920;-59
2023/01/03 08:23:08;;;;;;;;;;;5.80;99.90;;;;;;5064892;28;20007;-58
2023/01/03 08:25:34;;;;;;;;;;;5.90;99.90;;;;;;5057109;28;20429;-60
2023/01/03 08:28:01;;;;;;;;;;;5.90;99.90;;;;;;5073261;28;20387;-58
2023/01/03 08:30:28;;;;;;;;;;;6.00;99.90;;;;;;5073073;28;19927;-60
2023/01/03 08:32:55;;;;;;;;;;;6.00;99.90;;;;;;5073437;28;20002;-60
2023/01/03 08:35:22;;;;;;;;;;;6.00;99.90;;;;;;5073136;28;19921;-58
2023/01/03 08:37:52;;;;;;;;;;;6.10;99.90;;;;;;5073137;28;19920;-60
2023/01/03 08:40:18;;;;;;;;;;;6.10;99.90;;;;;;5073060;28;19920;-60
2023/01/03 08:42:45;;;;;;;;;;;6.20;99.90;;;;;;5072700;28;19920;-60
2023/01/03 08:45:13;;;;;;;;;;;6.20;99.90;;;;;;5072928;28;19920;-58
2023/01/03 08:47:40;;;;;;;;;;;6.30;99.90;;;;;;5072553;28;19974;-57
2023/01/03 08:50:08;;;;;;;;;;;6.40;99.90;;;;;;5073157;28;19944;-58
2023/01/03 08:52:34;;;;;;;;;;;6.40;99.90;;;;;;5069489;28;19971;-60
2023/01/03 08:55:02;;;;;;;;;;;6.50;99.90;;;;;;5061311;28;19921;-57
2023/01/03 08:57:29;;;;;;;;;;;6.60;99.90;;;;;;5052748;28;20383;-58
2023/01/03 08:59:55;;;;;;;;;;;6.70;99.90;;;;;;5052808;28;19982;-60
2023/01/03 09:02:22;;;;;;;;;;;6.70;99.90;;;;;;5052849;28;19924;-60
2023/01/03 09:04:48;;;;;;;;;;;6.70;99.90;;;;;;5053100;28;19975;-58
2023/01/03 09:07:15;;;;;;;;;;;6.80;99.90;;;;;;5052568;28;20333;-58
2023/01/03 09:09:41;;;;;;;;;;;6.70;99.90;;;;;;5052789;28;19967;-58
2023/01/03 09:12:09;;;;;;;;;;;6.70;99.90;;;;;;5052692;28;19939;-60
2023/01/03 09:14:36;;;;;;;;;;;6.80;99.90;;;;;;5052502;28;20018;-60
2023/01/03 09:17:02;;;;;;;;;;;6.80;99.90;;;;;;5052267;28;19924;-60
2023/01/03 09:19:29;;;;;;;;;;;6.90;99.90;;;;;;5052221;28;19927;-60
2023/01/03 09:21:55;;;;;;;;;;;6.80;99.90;;;;;;5052472;28;19924;-60
2023/01/03 09:24:22;;;;;;;;;;;6.80;99.90;;;;;;5062464;28;20011;-60
2023/01/03 09:26:48;;;;;;;;;;;6.80;99.90;;;;;;5072478;28;20353;-60
2023/01/03 09:29:16;;;;;;;;;;;6.80;99.90;;;;;;5072241;28;19977;-60
2023/01/03 09:31:43;;;;;;;;;;;6.90;99.90;;;;;;5072321;28;19924;-59
2023/01/03 09:34:09;;;;;;;;;;;7.00;99.90;;;;;;5071522;28;19965;-59
2023/01/03 09:36:37;;;;;;;;;;;7.20;99.90;;;;;;5071911;28;20429;-57
2023/01/03 09:39:04;;;;;;;;;;;7.30;99.90;;;;;;5072010;28;19944;-58
2023/01/03 09:41:30;;;;;;;;;;;7.30;99.90;;;;;;5071948;28;19982;-60
2023/01/03 09:43:59;;;;;;;;;;;7.40;99.90;;;;;;5072150;28;20280;-61
2023/01/03 09:46:27;;;;;;;;;;;7.40;99.90;;;;;;5072045;28;20444;-58
2023/01/03 09:48:54;;;;;;;;;;;7.40;99.90;;;;;;5072218;28;19975;-59
2023/01/03 10:05:28;;;;;;;;;;;7.80;99.90;;;;;;5031995;28;19928;-58
2023/01/03 10:08:09;;;;;;;;;;;7.90;99.90;;;;;;5031940;28;19928;-60
2023/01/03 10:10:41;;;;;;;;;;;7.90;99.90;;;;;;5031966;28;19921;-58
2023/01/03 10:13:13;;;;;;;;;;;8.00;99.90;;;;;;5032118;28;19925;-58
2023/01/03 10:15:44;;;;;;;;;;;8.10;99.90;;;;;;5032157;28;20347;-60
2023/01/03 10:18:16;;;;;;;;;;;8.10;99.90;;;;;;5031599;28;20376;-58
2023/01/03 10:20:45;;;;;;;;;;;8.10;99.90;;;;;;5031959;28;20327;-58
2023/01/03 10:23:12;;;;;;;;;;;8.10;99.90;;;;;;5048471;28;20371;-59
2023/01/03 10:25:41;;;;;;;;;;;8.00;99.90;;;;;;5064141;28;19920;-59
2023/01/03 10:28:11;;;;;;;;;;;8.00;99.90;;;;;;5071545;28;19978;-60
2023/01/03 10:30:47;;;;;;;;;;;8.00;99.90;;;;;;5071815;28;19924;-60
2023/01/03 10:33:22;;;;;;;;;;;7.90;99.90;;;;;;5071853;28;19947;-59
2023/01/03 10:35:50;;;;;;;;;;;7.90;99.90;;;;;;5071708;28;19954;-59
2023/01/03 10:38:17;;;;;;;;;;;8.00;99.90;;;;;;5071378;28;20018;-58
2023/01/03 10:40:45;;;;;;;;;;;7.90;99.90;;;;;;5071955;28;19982;-60
2023/01/03 10:43:16;;;;;;;;;;;7.90;99.90;;;;;;5071706;28;20341;-60
2023/01/03 10:45:50;;;;;;;;;;;7.90;99.90;;;;;;5073118;28;20016;-59
2023/01/03 10:48:16;;;;;;;;;;;7.90;99.90;;;;;;5075236;28;19966;-61
2023/01/03 10:50:45;;;;;;;;;;;7.90;99.90;;;;;;5075338;28;19920;-57
2023/01/03 10:53:12;;;;;;;;;;;7.90;99.90;;;;;;5067021;28;20260;-59
2023/01/03 10:55:44;;;;;;;;;;;7.90;99.90;;;;;;5062927;28;19937;-55
2023/01/03 10:58:16;;;;;;;;;;;8.00;99.90;;;;;;5055324;28;19921;-56
2023/01/03 11:00:42;;;;;;;;;;;8.10;99.90;;;;;;5055476;28;19921;-56
2023/01/03 11:03:14;;;;;;;;;;;8.10;99.90;;;;;;5055306;28;20007;-58
2023/01/03 11:05:42;;;;;;;;;;;8.10;99.90;;;;;;5055573;28;19925;-55
2023/01/03 11:08:18;;;;;;;;;;;8.20;99.90;;;;;;5055082;28;19921;-53
2023/01/03 11:10:56;;;;;;;;;;;8.30;99.90;;;;;;5055328;28;19921;-57
2023/01/03 11:13:23;;;;;;;;;;;8.30;99.90;;;;;;5055468;28;19920;-53
2023/01/03 11:15:53;;;;;;;;;;;8.40;99.90;;;;;;5055476;28;20015;-60
2023/01/03 11:18:20;;;;;;;;;;;8.30;99.90;;;;;;5055225;28;19921;-59
2023/01/03 11:20:49;;;;;;;;;;;8.30;99.90;;;;;;5055186;28;20003;-58
2023/01/03 11:23:22;;;;;;;;;;;8.20;99.90;;;;;;5063188;28;20019;-61
2023/01/03 11:25:53;;;;;;;;;;;8.20;99.90;;;;;;5068336;28;20402;-60
2023/01/03 11:28:38;;;;;;;;;;;8.20;99.90;;;;;;5074539;28;19982;-57
2023/01/03 11:31:07;;;;;;;;;;;8.10;99.90;;;;;;5074959;28;19927;-58
2023/01/03 11:33:43;;;;;;;;;;;8.10;99.90;;;;;;5074656;28;19920;-60
2023/01/03 11:36:14;;;;;;;;;;;8.20;99.90;;;;;;5074243;28;19927;-61
2023/01/03 11:38:52;;;;;;;;;;;8.20;99.90;;;;;;5074165;28;19974;-61
2023/01/03 11:41:33;;;;;;;;;;;8.20;99.90;;;;;;5074691;28;19928;-58
2023/01/03 11:44:10;;;;;;;;;;;8.20;99.90;;;;;;5071520;28;19920;-60
2023/01/03 11:46:44;;;;;;;;;;;8.20;99.90;;;;;;5074270;28;19923;-58
2023/01/03 11:49:20;;;;;;;;;;;8.20;99.90;;;;;;5074323;28;20325;-57
2023/01/03 11:51:52;;;;;;;;;;;8.20;99.90;;;;;;5074333;28;19920;-57
2023/01/03 11:54:31;;;;;;;;;;;8.20;99.90;;;;;;5064573;28;19920;-58
2023/01/03 11:57:03;;;;;;;;;;;8.20;99.90;;;;;;5053264;28;19920;-62
2023/01/03 11:59:47;;;;;;;;;;;8.20;99.90;;;;;;5054180;28;19924;-57
2023/01/03 12:02:33;;;;;;;;;;;8.20;99.90;;;;;;5053960;28;20245;-57
2023/01/03 12:05:06;;;;;;;;;;;8.20;99.90;;;;;;5053993;28;19975;-58
2023/01/03 12:07:40;;;;;;;;;;;8.30;99.90;;;;;;5053636;28;20020;-59
2023/01/03 12:10:11;;;;;;;;;;;8.20;99.90;;;;;;5053621;28;19978;-55
2023/01/03 12:12:59;;;;;;;;;;;8.20;99.90;;;;;;5054039;28;20303;-52
2023/01/03 12:15:27;;;;;;;;;;;8.20;99.90;;;;;;5048741;28;19974;-56
2023/01/03 12:17:57;;;;;;;;;;;8.30;99.90;;;;;;5053109;28;19924;-58
2023/01/03 12:20:24;;;;;;;;;;;8.30;99.90;;;;;;5053416;28;20721;-57
2023/01/03 12:22:53;;;;;;;;;;;8.30;99.90;;;;;;5059344;28;19920;-58
2023/01/03 12:25:25;;;;;;;;;;;8.40;99.90;;;;;;5064456;28;19920;-61
2023/01/03 12:27:56;;;;;;;;;;;8.40;99.90;;;;;;5060035;28;19975;-59
2023/01/03 12:30:26;;;;;;;;;;;8.50;99.90;;;;;;5062427;28;19921;-59
2023/01/03 12:32:55;;;;;;;;;;;8.50;99.90;;;;;;5073119;28;19920;-59
2023/01/03 12:35:25;;;;;;;;;;;8.60;99.90;;;;;;5057298;28;20271;-63
2023/01/03 12:37:51;;;;;;;;;;;8.60;99.90;;;;;;5057501;28;19927;-62
2023/01/03 12:40:24;;;;;;;;;;;8.80;99.90;;;;;;5054665;28;19921;-63
2023/01/03 12:42:56;;;;;;;;;;;9.00;99.90;;;;;;5052533;28;20375;-63
2023/01/03 12:45:30;;;;;;;;;;;9.00;99.90;;;;;;5052602;28;19921;-62
2023/01/03 12:47:58;;;;;;;;;;;9.10;99.90;;;;;;5051960;28;19925;-61
2023/01/03 12:50:28;;;;;;;;;;;9.20;99.90;;;;;;5052676;28;20528;-62
2023/01/03 12:52:57;;;;;;;;;;;9.20;99.90;;;;;;5058434;28;19920;-61
2023/01/03 12:55:25;;;;;;;;;;;9.20;99.90;;;;;;5064450;28;20157;-63
2023/01/03 12:58:00;;;;;;;;;;;9.10;99.90;;;;;;5072201;28;19920;-62
2023/01/03 13:00:37;;;;;;;;;;;9.20;99.90;;;;;;5071765;28;19929;-62
2023/01/03 13:03:06;;;;;;;;;;;9.20;99.90;;;;;;5072734;28;19921;-64
2023/01/03 13:05:37;;;;;;;;;;;9.20;99.90;;;;;;5072199;28;19921;-63
2023/01/03 13:08:06;;;;;;;;;;;9.30;94.10;;;;;;5072386;28;20345;-63
2023/01/03 13:10:35;;;;;;;;;;;9.30;97.80;;;;;;5072030;28;19924;-64
2023/01/03 13:13:03;;;;;;;;;;;9.30;87.60;;;;;;5072614;28;19921;-63
2023/01/03 13:15:31;;;;;;;;;;;9.20;84.90;;;;;;5071985;28;19924;-63
2023/01/03 13:18:12;;;;;;;;;;;9.20;69.10;;;;;;5072107;28;19927;-63
2023/01/03 13:20:39;;;;;;;;;;;9.20;78.10;;;;;;5071957;28;19946;-65
2023/01/03 13:23:21;;;;;;;;;;;9.20;76.70;;;;;;5063845;28;19951;-65
2023/01/03 13:26:15;;;;;;;;;;;9.20;87.00;;;;;;5044844;28;19921;-61
2023/01/03 13:28:43;;;;;;;;;;;9.20;74.40;;;;;;5037486;28;19974;-62
2023/01/03 13:31:28;;;;;;;;;;;9.20;65.90;;;;;;5051041;28;19924;-58
2023/01/03 13:33:56;;;;;;;;;;;9.20;38.70;;;;;;5051489;28;20030;-60
2023/01/03 13:36:23;;;;;;;;;;;9.20;26.90;;;;;;5050989;28;19966;-61
2023/01/03 13:38:50;;;;;;;;;;;9.10;27.20;;;;;;5050742;28;20621;-62
2023/01/03 13:41:29;;;;;;;;;;;9.10;31.80;;;;;;5059644;28;19935;-62
2023/01/03 13:44:06;;;;;;;;;;;9.00;21.40;;;;;;5066225;28;20328;-61
2023/01/03 13:46:33;;;;;;;;;;;9.10;33.80;;;;;;5070607;28;19921;-59
2023/01/03 13:49:01;;;;;;;;;;;9.10;26.70;;;;;;5071608;28;19928;-61
2023/01/03 13:51:47;;;;;;;;;;;9.20;31.00;;;;;;5071093;28;19924;-62
2023/01/03 13:54:32;;;;;;;;;;;9.10;41.40;;;;;;5062078;28;19920;-62
2023/01/03 13:57:02;;;;;;;;;;;9.10;29.30;;;;;;5056674;28;19981;-61
2023/01/03 13:59:34;;;;;;;;;;;9.10;30.30;;;;;;5062094;28;20343;-61
2023/01/03 14:02:19;;;;;;;;;;;9.20;9.40;;;;;;5070102;28;20012;-62
2023/01/03 14:04:57;;;;;;;;;;;9.20;1.00;;;;;;5070729;28;20249;-63
2023/01/03 14:07:50;;;;;;;;;;;9.20;1.00;;;;;;5068745;28;20288;-64
2023/01/03 14:10:32;;;;;;;;;;;9.20;6.20;;;;;;5023683;28;20273;-61
2023/01/03 14:13:04;;;;;;;;;;;9.20;1.40;;;;;;5044692;28;20023;-63
2023/01/03 14:15:33;;;;;;;;;;;9.20;9.30;;;;;;5063034;28;19974;-62
2023/01/03 14:18:01;;;;;;;;;;;9.20;1.00;;;;;;5071665;28;19920;-62
2023/01/03 14:20:30;;;;;;;;;;;9.20;1.00;;;;;;5058356;28;19928;-64
2023/01/03 14:23:00;;;;;;;;;;;9.30;1.00;;;;;;5061742;28;19920;-62
2023/01/03 14:25:31;;;;;;;;;;;9.20;1.00;;;;;;5056001;28;19928;-60
2023/01/03 14:28:00;;;;;;;;;;;9.20;1.00;;;;;;5055570;28;20003;-58
2023/01/03 14:30:28;;;;;;;;;;;9.10;1.00;;;;;;5054440;28;20433;-58
2023/01/03 14:32:56;;;;;;;;;;;9.00;1.00;;;;;;5054987;28;20405;-58
2023/01/03 14:35:34;;;;;;;;;;;8.90;1.00;;;;;;5055501;28;19921;-61
2023/01/03 14:38:00;;;;;;;;;;;8.80;1.00;;;;;;5054500;28;20003;-61
2023/01/03 14:40:27;;;;;;;;;;;8.70;1.00;;;;;;5054850;28;20024;-60
2023/01/03 14:42:54;;;;;;;;;;;8.70;1.00;;;;;;5054441;28;19920;-61
2023/01/03 14:45:21;;;;;;;;;;;8.70;1.00;;;;;;5063774;28;19939;-61
2023/01/03 14:47:50;;;;;;;;;;;8.60;1.00;;;;;;5074157;28;20421;-60
2023/01/03 14:50:19;;;;;;;;;;;8.50;1.00;;;;;;5074067;28;20137;-61
2023/01/03 14:52:47;;;;;;;;;;;8.50;9.20;;;;;;5066055;28;19982;-62
2023/01/03 14:55:16;;;;;;;;;;;8.40;1.00;;;;;;5061515;28;19920;-59
2023/01/03 14:57:43;;;;;;;;;;;8.50;1.00;;;;;;5065741;28;19920;-60
2023/01/03 15:00:15;;;;;;;;;;;8.40;1.00;;;;;;5056232;28;20400;-61
2023/01/03 15:02:42;;;;;;;;;;;8.40;5.10;;;;;;5066606;28;19990;-59
2023/01/03 15:05:13;;;;;;;;;;;8.40;1.00;;;;;;5074549;28;19993;-59
2023/01/03 15:07:42;;;;;;;;;;;8.50;1.00;;;;;;5074811;28;19920;-60
2023/01/03 15:10:17;;;;;;;;;;;8.50;1.00;;;;;;5074832;28;20413;-60
2023/01/03 15:12:44;;;;;;;;;;;8.50;1.00;;;;;;5074997;28;19920;-60
2023/01/03 15:15:18;;;;;;;;;;;8.50;1.00;;;;;;5074914;28;19921;-58
2023/01/03 15:17:46;;;;;;;;;;;8.50;1.00;;;;;;5074713;28;19920;-58
2023/01/03 15:20:14;;;;;;;;;;;8.50;4.60;;;;;;5074561;28;19920;-59
2023/01/03 15:22:42;;;;;;;;;;;8.50;1.00;;;;;;5070232;28;19921;-59
2023/01/03 15:25:16;;;;;;;;;;;8.40;11.00;;;;;;5062833;28;20371;-60
2023/01/03 15:27:47;;;;;;;;;;;8.40;13.80;;;;;;5054339;28;20015;-58
2023/01/03 15:30:32;;;;;;;;;;;8.40;6.50;;;;;;5054386;28;19924;-58
2023/01/03 15:32:59;;;;;;;;;;;8.30;10.20;;;;;;5053149;28;20362;-57
2023/01/03 15:35:31;;;;;;;;;;;8.20;17.60;;;;;;5054490;28;19921;-59
2023/01/03 15:38:00;;;;;;;;;;;8.20;26.30;;;;;;5054083;28;19924;-60
2023/01/03 15:40:29;;;;;;;;;;;8.20;24.20;;;;;;5054171;28;19928;-61